Time;durP1;ratioP1;P1;durP2;ratioP2;P2;SDS_P1;SDS_P2;PMS_P1;PMS_P2;Temp;Humidity;BMP_temperature;BMP_pressure;BME280_temperature;BME280_humidity;BME280_pressure;Samples;Min_cycle;Max_cycle;Signal;HPM_P1;HPM_P2
2021/11/16 00:01:39;;;;;;;31.82;20.05;;;7.40;99.90;;;;;;1892077;73;21463;-76
2021/11/16 00:04:05;;;;;;;35.17;19.95;;;7.30;99.90;;;;;;1909204;74;21066;-76
2021/11/16 00:06:32;;;;;;;33.70;18.77;;;7.40;99.90;;;;;;1916406;73;21198;-76
2021/11/16 00:08:58;;;;;;;33.95;19.48;;;7.40;99.90;;;;;;1906925;74;21110;-76
2021/11/16 00:11:24;;;;;;;35.90;19.92;;;7.30;99.90;;;;;;1907076;74;21067;-75
2021/11/16 00:13:50;;;;;;;36.23;20.35;;;7.30;99.90;;;;;;1911079;73;21058;-75
2021/11/16 00:16:16;;;;;;;36.83;19.52;;;7.20;99.90;;;;;;1909558;74;21157;-75
2021/11/16 00:18:42;;;;;;;35.52;19.98;;;7.20;99.90;;;;;;1907135;74;21059;-75
2021/11/16 00:21:11;;;;;;;31.85;18.80;;;7.20;99.90;;;;;;1918515;73;21074;-74
2021/11/16 00:23:37;;;;;;;31.52;18.48;;;7.30;99.90;;;;;;1893423;74;21592;-75
2021/11/16 00:26:03;;;;;;;36.50;20.27;;;7.40;99.90;;;;;;1896466;74;21524;-74
2021/11/16 00:28:29;;;;;;;35.40;19.73;;;7.50;99.90;;;;;;1893028;74;21226;-74
2021/11/16 00:30:56;;;;;;;36.77;20.55;;;7.40;99.90;;;;;;1883972;74;21070;-74
2021/11/16 00:33:22;;;;;;;31.57;18.52;;;7.40;99.90;;;;;;1906527;73;21074;-74
2021/11/16 00:35:48;;;;;;;33.02;18.95;;;7.40;99.90;;;;;;1900357;74;21147;-74
2021/11/16 00:38:14;;;;;;;36.42;19.70;;;7.30;99.90;;;;;;1905389;74;21156;-73
2021/11/16 00:40:41;;;;;;;47.35;19.65;;;7.30;99.90;;;;;;1910567;74;21042;-73
2021/11/16 00:43:09;;;;;;;37.90;19.00;;;7.30;99.90;;;;;;1914176;74;21138;-73
2021/11/16 00:45:36;;;;;;;30.95;18.42;;;7.40;99.90;;;;;;1898329;73;21043;-73
2021/11/16 00:48:02;;;;;;;29.75;18.15;;;7.40;99.90;;;;;;1908843;73;21057;-74
2021/11/16 00:50:28;;;;;;;39.35;19.90;;;7.40;99.90;;;;;;1912360;74;21062;-74
2021/11/16 00:52:54;;;;;;;33.67;18.75;;;7.40;99.90;;;;;;1909321;73;21046;-75
2021/11/16 00:55:20;;;;;;;33.25;17.70;;;7.40;99.90;;;;;;1913303;73;21210;-74
2021/11/16 00:57:46;;;;;;;33.67;18.42;;;7.30;99.90;;;;;;1908115;73;21148;-74
2021/11/16 01:00:12;;;;;;;37.88;19.00;;;7.40;99.90;;;;;;1902265;73;21131;-74
2021/11/16 01:02:38;;;;;;;30.45;18.02;;;7.20;99.90;;;;;;1912719;74;21166;-74
2021/11/16 01:05:05;;;;;;;25.85;16.73;;;7.20;99.90;;;;;;1903294;74;21119;-74
2021/11/16 01:07:31;;;;;;;30.65;17.52;;;7.10;99.90;;;;;;1903415;73;21445;-74
2021/11/16 01:09:57;;;;;;;31.27;17.85;;;7.10;99.90;;;;;;1883587;75;21128;-74
2021/11/16 01:12:25;;;;;;;33.25;18.60;;;7.10;99.90;;;;;;1901715;74;21136;-75
2021/11/16 01:14:51;;;;;;;36.42;17.87;;;7.10;99.90;;;;;;1912990;73;21127;-74
2021/11/16 01:17:17;;;;;;;29.82;17.52;;;7.10;99.90;;;;;;1912286;74;21171;-74
2021/11/16 01:19:43;;;;;;;32.45;19.27;;;7.00;99.90;;;;;;1914678;73;21042;-74
2021/11/16 01:22:09;;;;;;;31.62;17.27;;;7.00;99.90;;;;;;1912345;73;21058;-74
2021/11/16 01:24:36;;;;;;;35.03;17.80;;;7.10;99.90;;;;;;1914851;73;21075;-74
2021/11/16 01:27:02;;;;;;;30.23;17.42;;;7.10;99.90;;;;;;1893908;73;21062;-73
2021/11/16 01:29:28;;;;;;;32.73;17.20;;;7.20;99.90;;;;;;1910612;73;21128;-73
2021/11/16 01:31:56;;;;;;;25.88;16.12;;;7.10;99.90;;;;;;1918615;73;21078;-73
2021/11/16 01:34:30;;;;;;;27.10;16.50;;;7.20;99.90;;;;;;1905203;74;21258;-74
2021/11/16 01:36:56;;;;;;;24.18;15.53;;;7.20;99.90;;;;;;1911654;73;21159;-74
2021/11/16 01:39:22;;;;;;;20.43;14.47;;;7.20;99.90;;;;;;1904015;74;21085;-74
2021/11/16 01:41:48;;;;;;;30.65;17.10;;;7.20;99.90;;;;;;1899173;73;21065;-74
2021/11/16 01:44:15;;;;;;;26.30;15.95;;;7.20;99.90;;;;;;1911252;73;21214;-75
2021/11/16 01:46:41;;;;;;;22.82;15.68;;;7.20;99.90;;;;;;1897780;74;21070;-74
2021/11/16 01:49:09;;;;;;;23.07;14.68;;;7.20;99.90;;;;;;1895275;74;21206;-74
2021/11/16 01:51:35;;;;;;;22.77;15.65;;;7.20;99.90;;;;;;1913242;73;21150;-74
2021/11/16 01:54:04;;;;;;;29.18;15.48;;;7.20;99.90;;;;;;1897743;73;21063;-74
2021/11/16 01:56:31;;;;;;;24.90;15.32;;;7.20;99.90;;;;;;1905629;74;21058;-74
2021/11/16 01:58:59;;;;;;;29.98;14.95;;;7.10;99.90;;;;;;1913639;74;21082;-74
2021/11/16 02:01:24;;;;;;;23.30;14.35;;;7.20;99.90;;;;;;1910381;74;21039;-74
2021/11/16 02:03:51;;;;;;;27.25;15.45;;;7.30;99.90;;;;;;1908877;74;21144;-74
2021/11/16 02:06:17;;;;;;;24.50;14.35;;;7.30;99.90;;;;;;1913854;74;21063;-74
2021/11/16 02:08:43;;;;;;;26.12;14.87;;;7.20;99.90;;;;;;1911317;73;21066;-74
2021/11/16 02:11:09;;;;;;;25.72;14.78;;;7.20;99.90;;;;;;1904783;73;21047;-73
2021/11/16 02:13:35;;;;;;;21.62;14.23;;;7.30;99.90;;;;;;1887644;74;21136;-73
2021/11/16 02:16:01;;;;;;;20.62;13.03;;;7.30;99.90;;;;;;1884431;73;21656;-73
2021/11/16 02:18:27;;;;;;;22.15;13.48;;;7.30;99.90;;;;;;1887756;75;21672;-74
2021/11/16 02:20:54;;;;;;;30.35;13.25;;;7.30;99.90;;;;;;1899542;74;21546;-74
2021/11/16 02:23:20;;;;;;;24.20;14.75;;;7.20;99.90;;;;;;1906849;73;21470;-74
2021/11/16 02:25:48;;;;;;;29.77;16.23;;;7.20;99.90;;;;;;1904270;73;21499;-73
2021/11/16 02:28:14;;;;;;;28.57;15.75;;;6.90;99.90;;;;;;1913101;74;21071;-74
2021/11/16 02:30:40;;;;;;;27.30;16.05;;;6.90;99.90;;;;;;1911129;73;21031;-74
2021/11/16 02:33:06;;;;;;;25.05;15.63;;;6.80;99.90;;;;;;1912193;73;21139;-75
2021/11/16 02:35:32;;;;;;;24.32;15.60;;;6.80;99.90;;;;;;1907672;74;21114;-74
2021/11/16 02:37:58;;;;;;;28.25;15.25;;;7.00;99.90;;;;;;1911447;73;21417;-74
2021/11/16 02:40:24;;;;;;;31.02;15.18;;;7.10;99.90;;;;;;1874238;75;21489;-75
2021/11/16 02:42:50;;;;;;;26.45;14.33;;;7.10;99.90;;;;;;1904311;74;21058;-74
2021/11/16 02:45:17;;;;;;;20.48;14.35;;;7.10;99.90;;;;;;1907867;73;21139;-74
2021/11/16 02:47:43;;;;;;;22.58;13.62;;;7.20;99.90;;;;;;1888838;74;21144;-74
2021/11/16 02:50:09;;;;;;;25.40;14.13;;;7.20;99.90;;;;;;1894226;74;21090;-75
2021/11/16 02:52:35;;;;;;;22.10;14.40;;;7.20;99.90;;;;;;1903084;74;21035;-75
2021/11/16 02:55:02;;;;;;;26.93;14.43;;;7.20;99.90;;;;;;1893225;74;21470;-74
2021/11/16 02:57:28;;;;;;;23.80;13.62;;;7.10;99.90;;;;;;1909007;74;21524;-73
2021/11/16 02:59:54;;;;;;;24.65;15.68;;;7.00;99.90;;;;;;1892254;73;21082;-74
2021/11/16 03:02:20;;;;;;;24.00;14.47;;;7.00;99.90;;;;;;1909185;73;21050;-74
2021/11/16 03:04:46;;;;;;;27.98;15.15;;;6.80;99.90;;;;;;1912491;74;21077;-74
2021/11/16 03:07:14;;;;;;;23.80;15.18;;;6.80;99.90;;;;;;1907310;74;21035;-74
2021/11/16 03:09:41;;;;;;;20.17;14.20;;;6.80;99.90;;;;;;1914329;74;21143;-75
2021/11/16 03:12:07;;;;;;;24.90;14.20;;;6.90;99.90;;;;;;1908533;74;21057;-73
2021/11/16 03:14:33;;;;;;;23.73;14.25;;;6.90;99.90;;;;;;1916889;73;21074;-74
2021/11/16 03:16:59;;;;;;;20.77;13.65;;;6.90;99.90;;;;;;1915463;74;21273;-75
2021/11/16 03:19:25;;;;;;;28.75;16.25;;;6.90;99.90;;;;;;1897730;74;21144;-74
2021/11/16 03:21:59;;;;;;;28.25;16.15;;;6.80;99.90;;;;;;1886866;74;21127;-74
2021/11/16 03:24:22;;;;;;;;;;;6.90;99.90;;;;;;1907809;74;21479;-74
2021/11/16 03:26:48;;;;;;;29.60;15.90;;;6.90;99.90;;;;;;1882044;75;20122;-74
2021/11/16 03:29:18;;;;;;;28.27;15.90;;;7.00;99.90;;;;;;1898447;74;21128;-74
2021/11/16 03:31:49;;;;;;;28.10;15.55;;;6.80;99.90;;;;;;1911796;74;21461;-74
2021/11/16 03:34:10;;;;;;;25.62;16.07;;;6.80;99.90;;;;;;1908897;74;21107;-73
2021/11/16 03:36:36;;;;;;;29.52;17.10;;;6.80;99.90;;;;;;1905671;74;21062;-74
2021/11/16 03:39:02;;;;;;;28.40;16.85;;;6.90;99.90;;;;;;1913877;73;21139;-73
2021/11/16 03:41:28;;;;;;;25.65;16.77;;;6.90;99.90;;;;;;1878212;74;21043;-74
2021/11/16 03:43:54;;;;;;;27.30;17.62;;;6.90;99.90;;;;;;1911048;73;21471;-74
2021/11/16 03:46:21;;;;;;;26.93;17.32;;;6.80;99.90;;;;;;1912978;74;21189;-74
2021/11/16 03:48:47;;;;;;;28.92;17.02;;;6.80;99.90;;;;;;1908563;73;21062;-74
2021/11/16 03:51:13;;;;;;;45.50;17.80;;;6.80;99.90;;;;;;1885957;73;21044;-74
2021/11/16 03:53:39;;;;;;;26.95;16.23;;;6.80;99.90;;;;;;1911337;73;21061;-74
2021/11/16 03:56:05;;;;;;;27.35;16.67;;;6.80;99.90;;;;;;1908510;74;21124;-74
2021/11/16 03:58:31;;;;;;;28.23;17.85;;;6.80;99.90;;;;;;1908902;74;21177;-75
2021/11/16 04:00:57;;;;;;;33.18;18.27;;;6.80;99.90;;;;;;1900841;74;21157;-74
2021/11/16 04:03:24;;;;;;;25.62;16.50;;;6.70;99.90;;;;;;1889404;74;21551;-74
2021/11/16 04:05:50;;;;;;;24.85;16.35;;;6.70;99.90;;;;;;1894420;73;21128;-74
2021/11/16 04:08:17;;;;;;;29.60;16.35;;;6.70;99.90;;;;;;1910132;73;21054;-74
2021/11/16 04:10:43;;;;;;;30.50;16.67;;;6.70;99.90;;;;;;1900880;73;21140;-74
2021/11/16 04:13:09;;;;;;;26.70;16.97;;;6.70;99.90;;;;;;1884566;75;21074;-74
2021/11/16 04:15:36;;;;;;;26.82;17.77;;;6.80;99.90;;;;;;1900373;74;21145;-74
2021/11/16 04:18:02;;;;;;;24.60;16.23;;;6.80;99.90;;;;;;1896725;73;21051;-73
2021/11/16 04:20:28;;;;;;;27.40;16.23;;;6.90;99.90;;;;;;1899424;74;21148;-73
2021/11/16 04:22:56;;;;;;;26.68;16.42;;;6.90;99.90;;;;;;1912787;73;21067;-74
2021/11/16 04:25:22;;;;;;;28.20;18.25;;;6.90;99.90;;;;;;1888813;73;21493;-73
2021/11/16 04:27:48;;;;;;;29.23;19.07;;;6.90;99.90;;;;;;1912439;73;21432;-74
2021/11/16 04:30:14;;;;;;;25.30;17.42;;;6.80;99.90;;;;;;1912422;73;21098;-74
2021/11/16 04:32:40;;;;;;;25.60;17.92;;;6.80;99.90;;;;;;1914272;73;21062;-73
2021/11/16 04:35:06;;;;;;;35.20;18.65;;;6.80;99.90;;;;;;1913404;74;21079;-73
2021/11/16 04:37:33;;;;;;;29.72;18.80;;;6.70;99.90;;;;;;1915160;73;21031;-73
2021/11/16 04:39:59;;;;;;;30.20;19.25;;;6.60;99.90;;;;;;1908912;74;21130;-72
2021/11/16 04:42:27;;;;;;;31.33;18.75;;;6.60;99.90;;;;;;1892365;73;21148;-73
2021/11/16 04:44:53;;;;;;;34.45;18.35;;;6.60;99.90;;;;;;1905588;74;21070;-74
2021/11/16 04:47:27;;;;;;;33.75;19.90;;;6.60;99.90;;;;;;1903580;73;21176;-73
2021/11/16 04:49:52;;;;;;;29.98;17.55;;;6.70;99.90;;;;;;1898143;74;21371;-73
2021/11/16 04:52:36;;;;;;;35.60;18.57;;;6.60;99.90;;;;;;1908824;74;21111;-75
2021/11/16 05:02:54;;;;;;;31.40;18.87;;;6.70;99.90;;;;;;1895316;73;21188;-73
2021/11/16 05:05:20;;;;;;;34.63;19.95;;;6.60;99.90;;;;;;1899839;74;21055;-72
2021/11/16 05:07:49;;;;;;;33.83;19.23;;;6.50;99.90;;;;;;1913981;73;21063;-73
2021/11/16 05:10:14;;;;;;;32.67;19.70;;;6.50;99.90;;;;;;1909176;73;21244;-75
2021/11/16 05:12:40;;;;;;;34.70;19.62;;;6.50;99.90;;;;;;1914954;74;21050;-73
2021/11/16 05:15:07;;;;;;;33.58;18.52;;;6.50;99.90;;;;;;1917117;74;21123;-73
2021/11/16 05:17:33;;;;;;;29.65;19.07;;;6.50;99.90;;;;;;1906398;73;21061;-73
2021/11/16 05:19:59;;;;;;;30.52;19.05;;;6.50;99.90;;;;;;1908392;74;21074;-73
2021/11/16 05:22:25;;;;;;;38.88;19.70;;;6.50;99.90;;;;;;1911905;74;21182;-73
2021/11/16 05:24:51;;;;;;;34.30;19.75;;;6.40;99.90;;;;;;1894312;73;21043;-73
2021/11/16 05:27:17;;;;;;;29.10;18.85;;;6.40;99.90;;;;;;1912239;73;21155;-73
2021/11/16 05:29:43;;;;;;;31.80;18.73;;;6.40;99.90;;;;;;1911673;74;21131;-73
2021/11/16 05:32:10;;;;;;;31.33;18.80;;;6.40;99.90;;;;;;1907372;74;21166;-73
2021/11/16 05:34:36;;;;;;;38.92;19.27;;;6.40;99.90;;;;;;1910741;73;21070;-73
2021/11/16 05:37:02;;;;;;;32.00;17.80;;;6.40;99.90;;;;;;1907321;74;21262;-74
2021/11/16 05:39:28;;;;;;;33.95;19.27;;;6.40;99.90;;;;;;1911542;74;21551;-74
2021/11/16 05:41:54;;;;;;;29.18;17.95;;;6.40;99.90;;;;;;1913759;73;21543;-73
2021/11/16 05:44:20;;;;;;;37.75;17.80;;;6.50;99.90;;;;;;1905973;73;21431;-73
2021/11/16 05:46:46;;;;;;;31.65;17.70;;;6.50;99.90;;;;;;1918097;74;21531;-75
2021/11/16 05:49:12;;;;;;;29.55;17.07;;;6.50;99.90;;;;;;1911981;74;21493;-75
2021/11/16 05:51:39;;;;;;;27.35;17.67;;;6.50;99.90;;;;;;1913016;73;21058;-75
2021/11/16 05:54:06;;;;;;;30.17;19.20;;;6.50;99.90;;;;;;1910556;73;21127;-75
2021/11/16 05:56:32;;;;;;;34.92;18.87;;;6.30;99.90;;;;;;1911064;73;21151;-75
2021/11/16 05:58:58;;;;;;;32.42;18.07;;;6.20;99.90;;;;;;1911033;74;21066;-75
2021/11/16 06:01:24;;;;;;;29.98;17.92;;;6.40;99.90;;;;;;1911727;73;21222;-75
2021/11/16 06:03:55;;;;;;;27.87;18.98;;;6.40;99.90;;;;;;1916530;73;21044;-74
2021/11/16 06:06:18;;;;;;;31.00;17.48;;;6.40;99.90;;;;;;1901551;73;21098;-73
2021/11/16 06:08:48;;;;;;;29.40;18.57;;;6.40;99.90;;;;;;1901187;73;21067;-74
2021/11/16 06:11:17;;;;;;;32.50;17.57;;;6.40;99.90;;;;;;1913305;74;21119;-74
2021/11/16 06:13:40;;;;;;;28.45;17.73;;;6.40;99.90;;;;;;1910286;74;21573;-75
2021/11/16 06:16:06;;;;;;;33.20;18.48;;;6.50;99.90;;;;;;1908241;73;21443;-75
2021/11/16 06:18:32;;;;;;;29.15;18.12;;;6.50;99.90;;;;;;1895933;74;21686;-75
2021/11/16 06:20:59;;;;;;;26.12;18.25;;;6.50;99.90;;;;;;1907406;73;21066;-74
2021/11/16 06:23:25;;;;;;;36.55;17.05;;;6.60;99.90;;;;;;1917705;74;21143;-74
2021/11/16 06:25:51;;;;;;;28.30;16.30;;;6.60;99.90;;;;;;1898780;73;21125;-75
2021/11/16 06:28:17;;;;;;;25.00;16.55;;;6.60;99.90;;;;;;1908338;73;21184;-74
2021/11/16 06:30:43;;;;;;;27.70;17.52;;;6.50;99.90;;;;;;1902521;73;21229;-75
2021/11/16 06:33:09;;;;;;;27.15;17.40;;;6.50;99.90;;;;;;1899755;73;21082;-75
2021/11/16 06:35:35;;;;;;;29.25;17.00;;;6.50;99.90;;;;;;1888639;74;21074;-75
2021/11/16 06:38:01;;;;;;;29.72;18.15;;;6.50;99.90;;;;;;1908392;74;21161;-76
2021/11/16 06:40:28;;;;;;;29.18;18.57;;;6.50;99.90;;;;;;1888795;73;21147;-76
2021/11/16 06:42:55;;;;;;;24.95;16.23;;;6.40;99.90;;;;;;1885078;73;21144;-75
2021/11/16 06:45:21;;;;;;;24.32;15.35;;;6.50;99.90;;;;;;1912949;73;21042;-76
2021/11/16 06:47:47;;;;;;;25.12;15.10;;;6.60;99.90;;;;;;1915432;74;21124;-75
2021/11/16 06:50:14;;;;;;;20.77;14.85;;;6.60;99.90;;;;;;1914885;73;21067;-75
2021/11/16 06:52:40;;;;;;;21.17;14.75;;;6.60;99.90;;;;;;1903336;73;21140;-74
2021/11/16 06:55:06;;;;;;;18.42;13.98;;;6.40;99.90;;;;;;1911190;73;21136;-73
2021/11/16 06:57:33;;;;;;;21.48;15.35;;;6.50;99.90;;;;;;1914567;73;21070;-73
2021/11/16 06:59:59;;;;;;;24.82;14.70;;;6.70;99.90;;;;;;1911651;74;21071;-73
2021/11/16 07:02:25;;;;;;;18.95;13.35;;;6.70;99.90;;;;;;1916052;74;21123;-74
2021/11/16 07:04:51;;;;;;;24.40;13.55;;;6.90;99.90;;;;;;1899315;73;21058;-73
2021/11/16 07:07:17;;;;;;;18.90;12.45;;;7.00;99.90;;;;;;1911700;73;21069;-75
2021/11/16 07:09:44;;;;;;;22.55;13.03;;;6.90;99.90;;;;;;1904492;74;21141;-73
2021/11/16 07:12:10;;;;;;;15.58;11.83;;;7.10;99.90;;;;;;1919114;73;21073;-74
2021/11/16 07:14:37;;;;;;;18.32;12.58;;;7.10;99.90;;;;;;1909703;73;21168;-74
2021/11/16 07:17:03;;;;;;;19.07;12.03;;;6.90;99.90;;;;;;1907284;74;21213;-74
2021/11/16 07:19:29;;;;;;;17.15;10.72;;;7.00;99.90;;;;;;1915112;73;21052;-75
2021/11/16 07:21:56;;;;;;;21.97;11.40;;;7.10;99.90;;;;;;1899944;73;21079;-74
2021/11/16 07:24:22;;;;;;;22.13;11.20;;;7.10;99.90;;;;;;1907643;73;21128;-73
2021/11/16 07:26:49;;;;;;;18.45;10.53;;;7.10;99.90;;;;;;1912242;73;21125;-72
2021/11/16 07:29:15;;;;;;;25.62;12.95;;;7.00;99.90;;;;;;1909621;74;21061;-74
2021/11/16 07:31:42;;;;;;;15.23;11.05;;;6.90;99.90;;;;;;1909252;74;21188;-73
2021/11/16 07:34:09;;;;;;;15.13;10.98;;;6.90;99.90;;;;;;1912911;74;21082;-73
2021/11/16 07:36:35;;;;;;;19.73;14.70;;;7.00;99.90;;;;;;1907299;73;21106;-74
2021/11/16 07:39:01;;;;;;;13.53;10.45;;;6.90;99.90;;;;;;1907120;74;21139;-74
2021/11/16 07:41:28;;;;;;;17.90;11.93;;;6.80;99.90;;;;;;1911719;74;21070;-72
2021/11/16 07:43:54;;;;;;;16.37;11.18;;;6.90;99.90;;;;;;1911524;74;21266;-74
2021/11/16 07:46:20;;;;;;;17.17;11.60;;;6.80;99.90;;;;;;1910946;73;21077;-74
2021/11/16 07:48:46;;;;;;;18.52;11.40;;;6.80;99.90;;;;;;1902152;74;21140;-74
2021/11/16 07:51:13;;;;;;;14.98;10.45;;;6.90;99.90;;;;;;1914729;73;21035;-73
2021/11/16 07:53:39;;;;;;;19.20;11.30;;;7.00;99.90;;;;;;1905471;74;21055;-74
2021/11/16 07:56:06;;;;;;;18.48;11.85;;;7.00;99.90;;;;;;1912884;73;21118;-74
2021/11/16 07:58:33;;;;;;;18.62;12.90;;;7.00;99.90;;;;;;1910481;74;21135;-74
2021/11/16 08:01:01;;;;;;;20.00;12.75;;;6.90;99.90;;;;;;1911392;73;21192;-75
2021/11/16 08:03:28;;;;;;;21.12;13.38;;;6.90;99.90;;;;;;1906354;73;21474;-75
2021/11/16 08:06:08;;;;;;;16.65;12.75;;;6.80;99.90;;;;;;1910011;73;21202;-75
2021/11/16 08:10:58;;;;;;;;;;;6.80;99.90;;;;;;1908547;73;21088;-75
2021/11/16 08:13:30;;;;;;;15.70;10.35;;;6.80;99.90;;;;;;1899680;73;20128;-75
2021/11/16 08:15:56;;;;;;;17.98;10.50;;;6.90;99.90;;;;;;1914784;73;21039;-75
2021/11/16 08:18:22;;;;;;;16.55;10.50;;;6.80;99.90;;;;;;1912287;73;21136;-75
2021/11/16 08:20:48;;;;;;;12.45;9.63;;;6.90;99.90;;;;;;1895089;73;21125;-75
2021/11/16 08:23:15;;;;;;;15.83;9.33;;;7.00;99.90;;;;;;1895489;74;21066;-74
2021/11/16 08:25:41;;;;;;;17.15;8.48;;;7.00;99.90;;;;;;1910914;73;21439;-75
2021/11/16 08:30:53;;;;;;;13.65;8.85;;;7.00;99.90;;;;;;1848360;76;21095;-75
2021/11/16 08:33:19;;;;;;;12.98;8.45;;;6.90;99.90;;;;;;1890718;73;21158;-75
2021/11/16 08:35:48;;;;;;;14.23;9.30;;;6.90;99.90;;;;;;1923057;73;21601;-75
2021/11/16 08:38:13;;;;;;;11.75;8.93;;;6.90;99.90;;;;;;1915901;73;21063;-75
2021/11/16 08:40:45;;;;;;;16.67;8.45;;;6.90;99.90;;;;;;1924215;72;21043;-75
2021/11/16 08:43:12;;;;;;;12.07;8.20;;;6.90;99.90;;;;;;1925685;72;21151;-75
2021/11/16 08:45:40;;;;;;;13.68;7.97;;;6.80;99.90;;;;;;1930282;71;21507;-75
2021/11/16 08:48:05;;;;;;;;;;;6.70;99.90;;;;;;1916263;72;21078;-75
2021/11/16 08:50:34;;;;;;;13.05;8.80;;;6.70;99.90;;;;;;1926541;73;20143;-74
2021/11/16 08:53:00;;;;;;;13.38;8.40;;;6.70;99.90;;;;;;1936848;72;21465;-74
2021/11/16 08:55:29;;;;;;;10.40;8.05;;;6.80;99.90;;;;;;1921243;72;21128;-74
2021/11/16 08:57:54;;;;;;;13.45;8.10;;;6.80;99.90;;;;;;1925130;71;21118;-75
2021/11/16 09:00:21;;;;;;;11.90;7.85;;;6.80;99.90;;;;;;1925762;72;21193;-75
2021/11/16 09:02:47;;;;;;;10.23;8.33;;;6.80;99.90;;;;;;1922180;72;21141;-75
2021/11/16 09:05:13;;;;;;;12.47;8.78;;;6.70;99.90;;;;;;1918639;71;21269;-74
2021/11/16 09:07:39;;;;;;;14.13;8.85;;;6.70;99.90;;;;;;1929919;72;21075;-75
2021/11/16 09:10:06;;;;;;;15.13;8.95;;;6.70;99.90;;;;;;1932304;73;21039;-74
2021/11/16 09:12:32;;;;;;;12.70;8.50;;;6.80;99.90;;;;;;1920573;73;21120;-75
2021/11/16 09:15:01;;;;;;;18.30;11.03;;;6.80;99.90;;;;;;1930263;71;21054;-74
2021/11/16 09:17:26;;;;;;;16.32;11.43;;;6.80;99.90;;;;;;1913606;72;21250;-75
2021/11/16 09:19:52;;;;;;;16.35;11.75;;;6.70;99.90;;;;;;1921790;72;21131;-74
2021/11/16 09:22:19;;;;;;;15.93;11.90;;;6.60;99.90;;;;;;1924021;73;21039;-75
2021/11/16 09:24:48;;;;;;;19.67;12.03;;;6.60;99.90;;;;;;1913613;72;21061;-75
2021/11/16 09:27:34;;;;;;;16.10;11.60;;;6.60;99.90;;;;;;1911425;73;21065;-75
2021/11/16 09:29:41;;;;;;;17.02;12.40;;;6.70;99.90;;;;;;1923287;73;21066;-74
2021/11/16 09:32:07;;;;;;;20.95;13.25;;;6.70;99.90;;;;;;1926299;72;21125;-75
2021/11/16 09:34:33;;;;;;;17.70;11.22;;;6.80;99.90;;;;;;1924684;73;21066;-74
2021/11/16 09:36:59;;;;;;;19.62;12.43;;;6.80;99.90;;;;;;1935948;72;21097;-75
2021/11/16 09:39:25;;;;;;;18.57;13.08;;;6.80;99.90;;;;;;1923649;73;21066;-74
2021/11/16 09:41:52;;;;;;;21.25;13.18;;;6.80;99.90;;;;;;1926351;72;21159;-76
2021/11/16 09:44:19;;;;;;;23.27;13.78;;;6.80;99.90;;;;;;1917846;72;21162;-74
2021/11/16 09:46:45;;;;;;;18.62;14.13;;;6.70;99.90;;;;;;1925066;73;21161;-75
2021/11/16 09:49:11;;;;;;;20.80;14.40;;;6.80;99.90;;;;;;1928490;71;21168;-75
2021/11/16 09:51:37;;;;;;;24.00;14.65;;;6.80;99.90;;;;;;1936195;71;21136;-74
2021/11/16 09:54:03;;;;;;;20.55;13.85;;;6.70;99.90;;;;;;1917711;72;21062;-74
2021/11/16 09:56:30;;;;;;;18.95;13.62;;;6.70;99.90;;;;;;1940145;72;21128;-75
2021/11/16 09:58:57;;;;;;;22.00;14.47;;;6.80;99.90;;;;;;1921574;73;21481;-75
2021/11/16 10:01:23;;;;;;;21.65;14.78;;;6.80;99.90;;;;;;1927355;72;22576;-74
2021/11/16 10:03:52;;;;;;;23.73;14.55;;;6.80;99.90;;;;;;1916297;73;21172;-74
2021/11/16 10:06:17;;;;;;;22.07;14.65;;;6.80;99.90;;;;;;1912858;72;21148;-75
2021/11/16 10:08:43;;;;;;;24.70;15.60;;;6.80;99.90;;;;;;1935043;72;21044;-75
2021/11/16 10:11:10;;;;;;;25.00;15.40;;;6.60;99.90;;;;;;1923974;72;21779;-75
2021/11/16 10:13:36;;;;;;;21.57;14.03;;;6.60;99.90;;;;;;1938993;71;21063;-75
2021/11/16 10:16:03;;;;;;;26.23;15.18;;;6.70;99.90;;;;;;1926500;72;21490;-75
2021/11/16 10:18:31;;;;;;;32.95;15.70;;;6.70;99.90;;;;;;1923947;72;21065;-75
2021/11/16 10:20:57;;;;;;;25.27;16.42;;;6.80;99.90;;;;;;1932595;72;21047;-74
2021/11/16 10:23:24;;;;;;;21.33;14.98;;;6.70;99.90;;;;;;1934793;71;21465;-75
2021/11/16 10:25:51;;;;;;;21.00;14.70;;;6.70;99.90;;;;;;1913181;72;21548;-75
2021/11/16 10:28:18;;;;;;;24.75;15.93;;;6.70;99.90;;;;;;1933680;72;21474;-75
2021/11/16 10:30:45;;;;;;;26.37;16.15;;;6.70;99.90;;;;;;1944109;72;21151;-75
2021/11/16 10:33:11;;;;;;;25.60;16.27;;;6.80;99.90;;;;;;1929629;72;21067;-75
2021/11/16 10:35:37;;;;;;;26.23;17.55;;;6.80;99.90;;;;;;1932267;71;21061;-75
2021/11/16 10:38:05;;;;;;;28.45;16.65;;;6.70;99.90;;;;;;1930078;71;21055;-76
2021/11/16 10:40:31;;;;;;;26.85;16.17;;;6.70;99.90;;;;;;1911737;73;21608;-76
2021/11/16 10:42:58;;;;;;;27.42;16.30;;;6.70;99.90;;;;;;1922375;72;21070;-75
2021/11/16 10:45:24;;;;;;;29.55;15.98;;;6.50;99.90;;;;;;1918841;72;21051;-75
2021/11/16 10:47:50;;;;;;;23.90;15.13;;;6.50;99.90;;;;;;1928808;72;21061;-75
2021/11/16 10:50:17;;;;;;;28.45;16.42;;;6.50;99.90;;;;;;1932700;72;21043;-76
2021/11/16 10:52:43;;;;;;;22.90;15.95;;;6.60;99.90;;;;;;1926266;73;21167;-74
2021/11/16 10:55:09;;;;;;;27.48;15.15;;;6.60;99.90;;;;;;1929359;73;21514;-75
2021/11/16 10:57:36;;;;;;;28.87;16.35;;;6.50;99.90;;;;;;1922646;73;21062;-72
2021/11/16 11:00:02;;;;;;;26.05;14.75;;;6.50;99.90;;;;;;1909707;74;21213;-72
2021/11/16 11:02:28;;;;;;;21.90;15.23;;;6.50;99.90;;;;;;1931909;72;21140;-72
2021/11/16 11:04:54;;;;;;;20.75;13.50;;;6.50;99.90;;;;;;1919600;72;21050;-72
2021/11/16 11:07:22;;;;;;;23.55;13.72;;;6.60;99.90;;;;;;1911343;72;21175;-72
2021/11/16 11:09:49;;;;;;;21.02;14.30;;;6.60;99.90;;;;;;1916291;73;21111;-72
2021/11/16 11:12:15;;;;;;;23.38;13.62;;;6.50;99.90;;;;;;1922896;73;21078;-72
2021/11/16 11:14:44;;;;;;;21.80;13.32;;;6.50;99.90;;;;;;1924621;73;21215;-71
2021/11/16 11:17:11;;;;;;;21.85;12.80;;;6.50;99.90;;;;;;1913713;73;21072;-71
2021/11/16 11:19:37;;;;;;;19.27;12.60;;;6.60;99.90;;;;;;1910437;72;21278;-72
2021/11/16 11:24:53;;;;;;;20.10;13.25;;;6.70;99.90;;;;;;1941737;72;21209;-71
2021/11/16 11:29:51;;;;;;;21.25;12.90;;;6.70;99.90;;;;;;1918627;72;21610;-72
2021/11/16 11:32:14;;;;;;;;;;;6.70;99.90;;;;;;1922957;73;21169;-72
2021/11/16 11:34:40;;;;;;;22.05;13.20;;;6.70;99.90;;;;;;1910849;73;20350;-71
2021/11/16 11:37:06;;;;;;;21.80;13.20;;;6.50;99.90;;;;;;1916667;72;21559;-74
2021/11/16 11:39:32;;;;;;;23.38;13.32;;;6.50;99.90;;;;;;1916787;71;21058;-78
2021/11/16 11:41:59;;;;;;;22.58;12.43;;;6.70;99.90;;;;;;1921433;73;21135;-78
2021/11/16 11:44:26;;;;;;;24.72;12.80;;;6.70;99.90;;;;;;1914614;72;21121;-77
2021/11/16 11:46:52;;;;;;;22.90;12.18;;;6.70;99.90;;;;;;1925993;72;21144;-79
2021/11/16 11:49:18;;;;;;;21.45;12.15;;;6.70;99.90;;;;;;1910085;73;21041;-78
2021/11/16 11:51:44;;;;;;;30.00;12.65;;;6.60;99.90;;;;;;1922515;73;21046;-77
2021/11/16 11:54:10;;;;;;;19.37;12.20;;;6.60;99.90;;;;;;1922321;72;21154;-73
2021/11/16 11:56:36;;;;;;;16.82;11.22;;;6.70;99.90;;;;;;1918653;72;21123;-79
2021/11/16 11:59:03;;;;;;;17.90;11.55;;;6.70;99.90;;;;;;1917607;72;21032;-73
2021/11/16 12:01:29;;;;;;;24.70;11.30;;;6.70;99.90;;;;;;1923035;72;21262;-73
2021/11/16 12:03:55;;;;;;;18.05;11.55;;;6.70;99.90;;;;;;1925885;72;21176;-74
2021/11/16 12:06:22;;;;;;;16.62;11.55;;;6.70;99.90;;;;;;1942876;72;21499;-72
2021/11/16 12:08:48;;;;;;;22.27;12.05;;;6.90;99.90;;;;;;1922007;72;21169;-72
2021/11/16 12:11:14;;;;;;;21.30;12.25;;;6.90;99.90;;;;;;1926962;72;21132;-72
2021/11/16 12:13:40;;;;;;;18.52;11.45;;;6.90;99.90;;;;;;1923411;71;21206;-76
2021/11/16 12:16:06;;;;;;;18.73;10.88;;;7.00;99.90;;;;;;1915640;72;21144;-72
2021/11/16 12:18:32;;;;;;;19.30;12.20;;;7.00;99.90;;;;;;1927256;72;21231;-72
2021/11/16 12:20:59;;;;;;;20.52;12.75;;;7.00;99.90;;;;;;1922360;73;21132;-73
2021/11/16 12:23:26;;;;;;;17.62;11.55;;;6.80;99.90;;;;;;1923554;72;21066;-73
2021/11/16 12:25:52;;;;;;;22.50;12.23;;;6.80;99.90;;;;;;1909965;74;21156;-71
2021/11/16 12:28:18;;;;;;;28.80;12.47;;;6.70;99.90;;;;;;1923915;72;21129;-72
2021/11/16 12:30:47;;;;;;;18.77;11.12;;;6.70;99.90;;;;;;1920813;72;21066;-72
2021/11/16 12:33:12;;;;;;;20.20;12.90;;;6.70;99.90;;;;;;1933037;73;22018;-78
2021/11/16 12:35:38;;;;;;;22.82;12.30;;;6.70;99.90;;;;;;1946182;72;21634;-70
2021/11/16 12:38:04;;;;;;;19.07;10.35;;;6.70;99.90;;;;;;1941537;73;21449;-70
2021/11/16 12:40:30;;;;;;;28.07;10.93;;;6.70;99.90;;;;;;1937433;73;21570;-70
2021/11/16 12:42:56;;;;;;;15.23;10.10;;;6.80;99.90;;;;;;1943622;72;21117;-71
2021/11/16 12:45:22;;;;;;;16.50;9.88;;;6.70;99.90;;;;;;1948007;72;21067;-71
2021/11/16 12:47:48;;;;;;;19.85;9.73;;;6.50;99.90;;;;;;1949583;73;21039;-71
2021/11/16 12:50:15;;;;;;;17.07;9.50;;;6.60;99.90;;;;;;1931724;72;21177;-70
2021/11/16 12:52:41;;;;;;;16.75;9.88;;;6.60;99.90;;;;;;1933824;73;21084;-71